sensor_id;sensor_type;location;lat;lon;timestamp;temperature;humidity
12438;DHT22;6283;51.330;12.374;2023-04-08T00:01:22;7.60;99.90
12438;DHT22;6283;51.330;12.374;2023-04-08T00:03:48;7.30;99.90
12438;DHT22;6283;51.330;12.374;2023-04-08T00:06:14;7.50;99.90
12438;DHT22;6283;51.330;12.374;2023-04-08T00:08:40;7.80;99.90
12438;DHT22;6283;51.330;12.374;2023-04-08T00:11:06;7.60;99.90
12438;DHT22;6283;51.330;12.374;2023-04-08T00:13:31;7.40;1.00
12438;DHT22;6283;51.330;12.374;2023-04-08T00:15:57;7.70;1.00
12438;DHT22;6283;51.330;12.374;2023-04-08T00:18:23;7.80;1.00
12438;DHT22;6283;51.330;12.374;2023-04-08T00:20:49;7.80;1.00
12438;DHT22;6283;51.330;12.374;2023-04-08T00:23:14;7.70;1.00
12438;DHT22;6283;51.330;12.374;2023-04-08T00:25:40;7.60;1.00
12438;DHT22;6283;51.330;12.374;2023-04-08T00:28:06;7.70;1.00
12438;DHT22;6283;51.330;12.374;2023-04-08T00:30:31;7.70;1.00
12438;DHT22;6283;51.330;12.374;2023-04-08T00:32:57;7.50;1.00
12438;DHT22;6283;51.330;12.374;2023-04-08T00:35:23;7.60;1.00
12438;DHT22;6283;51.330;12.374;2023-04-08T00:37:49;7.50;1.00
12438;DHT22;6283;51.330;12.374;2023-04-08T00:40:14;7.10;1.00
12438;DHT22;6283;51.330;12.374;2023-04-08T00:42:40;7.40;1.00
12438;DHT22;6283;51.330;12.374;2023-04-08T00:45:07;7.40;1.00
12438;DHT22;6283;51.330;12.374;2023-04-08T00:47:35;7.30;1.00
12438;DHT22;6283;51.330;12.374;2023-04-08T00:50:00;7.40;1.00
12438;DHT22;6283;51.330;12.374;2023-04-08T00:52:26;7.40;1.00
12438;DHT22;6283;51.330;12.374;2023-04-08T00:54:52;7.50;1.00
12438;DHT22;6283;51.330;12.374;2023-04-08T00:57:17;7.30;1.00
12438;DHT22;6283;51.330;12.374;2023-04-08T00:59:43;7.30;1.00
12438;DHT22;6283;51.330;12.374;2023-04-08T01:02:15;7.20;1.00
12438;DHT22;6283;51.330;12.374;2023-04-08T01:07:25;7.10;1.00
12438;DHT22;6283;51.330;12.374;2023-04-08T01:09:54;7.20;1.00
12438;DHT22;6283;51.330;12.374;2023-04-08T01:12:24;7.40;1.00
12438;DHT22;6283;51.330;12.374;2023-04-08T01:14:59;7.30;1.00
12438;DHT22;6283;51.330;12.374;2023-04-08T01:17:26;7.40;1.00
12438;DHT22;6283;51.330;12.374;2023-04-08T01:19:53;7.30;1.00
12438;DHT22;6283;51.330;12.374;2023-04-08T01:25:05;7.00;1.00
12438;DHT22;6283;51.330;12.374;2023-04-08T01:27:34;7.10;1.00
12438;DHT22;6283;51.330;12.374;2023-04-08T01:30:01;7.10;1.00
12438;DHT22;6283;51.330;12.374;2023-04-08T01:32:28;7.40;1.00
12438;DHT22;6283;51.330;12.374;2023-04-08T01:34:56;7.20;1.00
12438;DHT22;6283;51.330;12.374;2023-04-08T01:37:23;7.20;1.00
12438;DHT22;6283;51.330;12.374;2023-04-08T01:39:50;6.90;1.00
12438;DHT22;6283;51.330;12.374;2023-04-08T01:42:17;7.00;1.00
12438;DHT22;6283;51.330;12.374;2023-04-08T01:44:42;6.90;1.00
12438;DHT22;6283;51.330;12.374;2023-04-08T01:47:10;6.90;1.00
12438;DHT22;6283;51.330;12.374;2023-04-08T01:49:37;6.90;1.00
12438;DHT22;6283;51.330;12.374;2023-04-08T01:52:05;7.00;1.00
12438;DHT22;6283;51.330;12.374;2023-04-08T01:54:31;7.10;1.00
12438;DHT22;6283;51.330;12.374;2023-04-08T01:56:57;7.10;1.00
12438;DHT22;6283;51.330;12.374;2023-04-08T01:59:27;7.00;1.00
12438;DHT22;6283;51.330;12.374;2023-04-08T02:01:54;7.10;1.00
12438;DHT22;6283;51.330;12.374;2023-04-08T02:04:20;6.90;1.00
12438;DHT22;6283;51.330;12.374;2023-04-08T02:06:46;7.10;1.00
12438;DHT22;6283;51.330;12.374;2023-04-08T02:09:12;7.20;1.00
12438;DHT22;6283;51.330;12.374;2023-04-08T02:11:37;6.90;1.00
12438;DHT22;6283;51.330;12.374;2023-04-08T02:14:03;7.00;1.00
12438;DHT22;6283;51.330;12.374;2023-04-08T02:16:35;7.10;1.00
12438;DHT22;6283;51.330;12.374;2023-04-08T02:19:10;6.80;1.00
12438;DHT22;6283;51.330;12.374;2023-04-08T02:21:43;7.30;1.00
12438;DHT22;6283;51.330;12.374;2023-04-08T02:24:12;7.10;1.00
12438;DHT22;6283;51.330;12.374;2023-04-08T02:26:41;6.90;1.00
12438;DHT22;6283;51.330;12.374;2023-04-08T02:29:12;7.00;1.00
12438;DHT22;6283;51.330;12.374;2023-04-08T02:31:40;6.90;1.00
12438;DHT22;6283;51.330;12.374;2023-04-08T02:34:10;6.90;1.00
12438;DHT22;6283;51.330;12.374;2023-04-08T02:36:36;6.80;1.00
12438;DHT22;6283;51.330;12.374;2023-04-08T02:39:03;7.20;1.00
12438;DHT22;6283;51.330;12.374;2023-04-08T02:41:29;7.10;1.00
12438;DHT22;6283;51.330;12.374;2023-04-08T02:43:55;6.90;1.00
12438;DHT22;6283;51.330;12.374;2023-04-08T02:46:21;6.80;1.00
12438;DHT22;6283;51.330;12.374;2023-04-08T02:48:47;6.70;1.00
12438;DHT22;6283;51.330;12.374;2023-04-08T02:51:12;7.10;1.00
12438;DHT22;6283;51.330;12.374;2023-04-08T02:53:38;6.90;1.00
12438;DHT22;6283;51.330;12.374;2023-04-08T02:56:04;6.80;1.00
12438;DHT22;6283;51.330;12.374;2023-04-08T02:58:30;6.90;1.00
12438;DHT22;6283;51.330;12.374;2023-04-08T03:00:55;6.80;1.00
12438;DHT22;6283;51.330;12.374;2023-04-08T03:03:21;6.80;1.00
12438;DHT22;6283;51.330;12.374;2023-04-08T03:05:56;7.00;1.00
12438;DHT22;6283;51.330;12.374;2023-04-08T03:08:22;6.70;1.00
12438;DHT22;6283;51.330;12.374;2023-04-08T03:10:49;7.10;1.00
12438;DHT22;6283;51.330;12.374;2023-04-08T03:13:15;6.70;1.00
12438;DHT22;6283;51.330;12.374;2023-04-08T03:15:41;6.60;1.00
12438;DHT22;6283;51.330;12.374;2023-04-08T03:18:07;6.80;1.00
12438;DHT22;6283;51.330;12.374;2023-04-08T03:20:33;7.00;15.60
12438;DHT22;6283;51.330;12.374;2023-04-08T03:22:58;6.80;10.20
12438;DHT22;6283;51.330;12.374;2023-04-08T03:25:24;6.90;14.40
12438;DHT22;6283;51.330;12.374;2023-04-08T03:27:50;6.70;26.40
12438;DHT22;6283;51.330;12.374;2023-04-08T03:30:16;6.80;52.30
12438;DHT22;6283;51.330;12.374;2023-04-08T03:32:41;6.80;75.40
12438;DHT22;6283;51.330;12.374;2023-04-08T03:35:08;7.00;24.10
12438;DHT22;6283;51.330;12.374;2023-04-08T03:37:33;7.10;21.60
12438;DHT22;6283;51.330;12.374;2023-04-08T03:39:59;6.80;32.50
12438;DHT22;6283;51.330;12.374;2023-04-08T03:42:25;7.10;14.70
12438;DHT22;6283;51.330;12.374;2023-04-08T03:44:51;7.10;32.90
12438;DHT22;6283;51.330;12.374;2023-04-08T03:47:17;7.10;17.80
12438;DHT22;6283;51.330;12.374;2023-04-08T03:49:42;6.80;38.10
12438;DHT22;6283;51.330;12.374;2023-04-08T03:52:08;6.90;96.40
12438;DHT22;6283;51.330;12.374;2023-04-08T03:54:33;6.90;99.90
12438;DHT22;6283;51.330;12.374;2023-04-08T03:56:59;6.70;99.90
12438;DHT22;6283;51.330;12.374;2023-04-08T03:59:25;6.80;99.90
12438;DHT22;6283;51.330;12.374;2023-04-08T04:01:50;6.90;99.90
12438;DHT22;6283;51.330;12.374;2023-04-08T04:04:18;6.80;99.90
12438;DHT22;6283;51.330;12.374;2023-04-08T04:06:43;7.00;99.90
12438;DHT22;6283;51.330;12.374;2023-04-08T04:09:09;6.80;99.90
12438;DHT22;6283;51.330;12.374;2023-04-08T04:11:35;6.80;99.90
12438;DHT22;6283;51.330;12.374;2023-04-08T04:14:01;6.60;99.90
12438;DHT22;6283;51.330;12.374;2023-04-08T04:16:26;6.80;99.90
12438;DHT22;6283;51.330;12.374;2023-04-08T04:18:52;6.80;99.90
12438;DHT22;6283;51.330;12.374;2023-04-08T04:21:18;6.80;99.90
12438;DHT22;6283;51.330;12.374;2023-04-08T04:23:44;6.80;99.90
12438;DHT22;6283;51.330;12.374;2023-04-08T04:26:10;6.70;99.90
12438;DHT22;6283;51.330;12.374;2023-04-08T04:28:36;6.60;1.40
12438;DHT22;6283;51.330;12.374;2023-04-08T04:31:02;6.80;1.00
12438;DHT22;6283;51.330;12.374;2023-04-08T04:33:28;6.50;1.00
12438;DHT22;6283;51.330;12.374;2023-04-08T04:35:53;6.60;1.00
12438;DHT22;6283;51.330;12.374;2023-04-08T04:38:19;6.80;1.00
12438;DHT22;6283;51.330;12.374;2023-04-08T04:40:45;6.80;1.00
12438;DHT22;6283;51.330;12.374;2023-04-08T04:43:11;6.80;1.00
12438;DHT22;6283;51.330;12.374;2023-04-08T04:45:36;6.90;1.00
12438;DHT22;6283;51.330;12.374;2023-04-08T04:48:02;6.80;1.00
12438;DHT22;6283;51.330;12.374;2023-04-08T04:50:28;7.00;1.00
12438;DHT22;6283;51.330;12.374;2023-04-08T04:52:54;7.00;1.00
12438;DHT22;6283;51.330;12.374;2023-04-08T04:55:19;7.00;1.00
12438;DHT22;6283;51.330;12.374;2023-04-08T04:57:47;6.90;1.00
12438;DHT22;6283;51.330;12.374;2023-04-08T05:00:13;6.80;1.00
12438;DHT22;6283;51.330;12.374;2023-04-08T05:02:39;6.90;1.00
12438;DHT22;6283;51.330;12.374;2023-04-08T05:05:05;6.90;1.00
12438;DHT22;6283;51.330;12.374;2023-04-08T05:07:34;7.00;1.00
12438;DHT22;6283;51.330;12.374;2023-04-08T05:09:59;6.80;1.00
12438;DHT22;6283;51.330;12.374;2023-04-08T05:12:26;6.90;1.00
12438;DHT22;6283;51.330;12.374;2023-04-08T05:14:51;7.00;1.00
12438;DHT22;6283;51.330;12.374;2023-04-08T05:17:17;6.90;1.00
12438;DHT22;6283;51.330;12.374;2023-04-08T05:19:42;6.60;1.00
12438;DHT22;6283;51.330;12.374;2023-04-08T05:22:08;6.70;1.00
12438;DHT22;6283;51.330;12.374;2023-04-08T05:24:33;6.70;1.00
12438;DHT22;6283;51.330;12.374;2023-04-08T05:27:00;6.70;1.00
12438;DHT22;6283;51.330;12.374;2023-04-08T05:29:26;6.80;1.00
12438;DHT22;6283;51.330;12.374;2023-04-08T05:31:52;6.90;1.00
12438;DHT22;6283;51.330;12.374;2023-04-08T05:34:18;6.80;1.00
12438;DHT22;6283;51.330;12.374;2023-04-08T05:36:48;6.90;1.00
12438;DHT22;6283;51.330;12.374;2023-04-08T05:39:19;6.80;1.00
12438;DHT22;6283;51.330;12.374;2023-04-08T05:41:45;6.90;1.00
12438;DHT22;6283;51.330;12.374;2023-04-08T05:44:11;7.00;1.00
12438;DHT22;6283;51.330;12.374;2023-04-08T05:46:37;7.00;1.00
12438;DHT22;6283;51.330;12.374;2023-04-08T05:49:03;6.90;1.00
12438;DHT22;6283;51.330;12.374;2023-04-08T05:51:28;7.10;1.00
12438;DHT22;6283;51.330;12.374;2023-04-08T05:53:54;7.10;1.00
12438;DHT22;6283;51.330;12.374;2023-04-08T05:56:20;7.00;1.00
12438;DHT22;6283;51.330;12.374;2023-04-08T05:58:45;7.00;1.00
12438;DHT22;6283;51.330;12.374;2023-04-08T06:01:11;7.00;1.00
12438;DHT22;6283;51.330;12.374;2023-04-08T06:03:37;7.00;1.00
12438;DHT22;6283;51.330;12.374;2023-04-08T06:06:03;7.10;1.00
12438;DHT22;6283;51.330;12.374;2023-04-08T06:08:33;6.80;1.00
12438;DHT22;6283;51.330;12.374;2023-04-08T06:10:59;6.70;1.00
12438;DHT22;6283;51.330;12.374;2023-04-08T06:13:25;6.80;1.00
12438;DHT22;6283;51.330;12.374;2023-04-08T06:15:50;7.00;1.00
12438;DHT22;6283;51.330;12.374;2023-04-08T06:18:16;6.60;1.00
12438;DHT22;6283;51.330;12.374;2023-04-08T06:20:42;6.90;1.00
12438;DHT22;6283;51.330;12.374;2023-04-08T06:23:07;7.00;1.00
12438;DHT22;6283;51.330;12.374;2023-04-08T06:25:33;7.10;1.00
12438;DHT22;6283;51.330;12.374;2023-04-08T06:27:59;6.80;1.00
12438;DHT22;6283;51.330;12.374;2023-04-08T06:30:24;7.00;1.00
12438;DHT22;6283;51.330;12.374;2023-04-08T06:32:50;7.00;1.00
12438;DHT22;6283;51.330;12.374;2023-04-08T06:35:16;7.00;1.00
12438;DHT22;6283;51.330;12.374;2023-04-08T06:37:41;7.00;1.00
12438;DHT22;6283;51.330;12.374;2023-04-08T06:40:08;7.20;1.00
12438;DHT22;6283;51.330;12.374;2023-04-08T06:42:34;7.00;1.00
12438;DHT22;6283;51.330;12.374;2023-04-08T06:45:00;7.00;1.00
12438;DHT22;6283;51.330;12.374;2023-04-08T06:47:26;7.10;1.00
12438;DHT22;6283;51.330;12.374;2023-04-08T06:49:52;6.90;1.00
12438;DHT22;6283;51.330;12.374;2023-04-08T06:52:18;7.00;1.00
12438;DHT22;6283;51.330;12.374;2023-04-08T06:54:44;7.30;1.00
12438;DHT22;6283;51.330;12.374;2023-04-08T06:57:09;7.40;1.00
12438;DHT22;6283;51.330;12.374;2023-04-08T06:59:36;7.30;1.00
12438;DHT22;6283;51.330;12.374;2023-04-08T07:02:01;7.30;1.00
12438;DHT22;6283;51.330;12.374;2023-04-08T07:04:27;7.20;1.00
12438;DHT22;6283;51.330;12.374;2023-04-08T07:06:52;7.40;1.00
12438;DHT22;6283;51.330;12.374;2023-04-08T07:09:18;7.30;1.00
12438;DHT22;6283;51.330;12.374;2023-04-08T07:11:44;7.30;1.00
12438;DHT22;6283;51.330;12.374;2023-04-08T07:14:10;7.30;1.00
12438;DHT22;6283;51.330;12.374;2023-04-08T07:16:36;7.30;1.00
12438;DHT22;6283;51.330;12.374;2023-04-08T07:19:02;7.30;1.00
12438;DHT22;6283;51.330;12.374;2023-04-08T07:21:27;7.30;1.00
12438;DHT22;6283;51.330;12.374;2023-04-08T07:23:54;7.30;1.00
12438;DHT22;6283;51.330;12.374;2023-04-08T07:26:20;7.40;1.00
12438;DHT22;6283;51.330;12.374;2023-04-08T07:28:46;7.60;1.00
12438;DHT22;6283;51.330;12.374;2023-04-08T07:31:16;7.50;1.00
12438;DHT22;6283;51.330;12.374;2023-04-08T07:33:43;7.50;1.00
12438;DHT22;6283;51.330;12.374;2023-04-08T07:36:10;7.60;1.00
12438;DHT22;6283;51.330;12.374;2023-04-08T07:38:37;7.70;1.00
12438;DHT22;6283;51.330;12.374;2023-04-08T07:41:02;7.90;1.00
12438;DHT22;6283;51.330;12.374;2023-04-08T07:43:30;8.00;1.00
12438;DHT22;6283;51.330;12.374;2023-04-08T07:46:00;7.90;1.00
12438;DHT22;6283;51.330;12.374;2023-04-08T07:48:28;8.00;1.00
12438;DHT22;6283;51.330;12.374;2023-04-08T07:50:54;7.90;1.00
12438;DHT22;6283;51.330;12.374;2023-04-08T07:53:20;7.90;1.00
12438;DHT22;6283;51.330;12.374;2023-04-08T07:55:47;7.90;99.90
12438;DHT22;6283;51.330;12.374;2023-04-08T07:58:12;8.10;99.90
12438;DHT22;6283;51.330;12.374;2023-04-08T08:00:38;8.20;99.90
12438;DHT22;6283;51.330;12.374;2023-04-08T08:03:05;8.30;99.90
12438;DHT22;6283;51.330;12.374;2023-04-08T08:05:30;8.40;99.90
12438;DHT22;6283;51.330;12.374;2023-04-08T08:07:56;8.70;99.90
12438;DHT22;6283;51.330;12.374;2023-04-08T08:10:22;8.80;99.90
12438;DHT22;6283;51.330;12.374;2023-04-08T08:12:47;8.70;52.60
12438;DHT22;6283;51.330;12.374;2023-04-08T08:15:13;8.90;1.00
12438;DHT22;6283;51.330;12.374;2023-04-08T08:17:39;8.90;1.00
12438;DHT22;6283;51.330;12.374;2023-04-08T08:20:05;9.00;1.00
12438;DHT22;6283;51.330;12.374;2023-04-08T08:22:31;9.20;1.00
12438;DHT22;6283;51.330;12.374;2023-04-08T08:24:57;9.00;1.00
12438;DHT22;6283;51.330;12.374;2023-04-08T08:27:23;9.10;1.00
12438;DHT22;6283;51.330;12.374;2023-04-08T08:29:49;9.10;1.00
12438;DHT22;6283;51.330;12.374;2023-04-08T08:32:15;9.10;1.00
12438;DHT22;6283;51.330;12.374;2023-04-08T08:34:41;9.30;1.00
12438;DHT22;6283;51.330;12.374;2023-04-08T08:37:06;9.30;1.00
12438;DHT22;6283;51.330;12.374;2023-04-08T08:39:32;9.40;1.00
12438;DHT22;6283;51.330;12.374;2023-04-08T08:41:58;9.40;1.00
12438;DHT22;6283;51.330;12.374;2023-04-08T08:44:24;9.30;1.00
12438;DHT22;6283;51.330;12.374;2023-04-08T08:46:50;9.30;1.00
12438;DHT22;6283;51.330;12.374;2023-04-08T08:49:19;9.30;1.00
12438;DHT22;6283;51.330;12.374;2023-04-08T08:51:45;9.30;1.00
12438;DHT22;6283;51.330;12.374;2023-04-08T08:54:12;9.50;1.00
12438;DHT22;6283;51.330;12.374;2023-04-08T08:56:39;9.50;1.00
12438;DHT22;6283;51.330;12.374;2023-04-08T08:59:07;9.80;1.00
12438;DHT22;6283;51.330;12.374;2023-04-08T09:01:39;9.60;1.00
12438;DHT22;6283;51.330;12.374;2023-04-08T09:04:16;9.90;1.00
12438;DHT22;6283;51.330;12.374;2023-04-08T09:06:45;9.90;1.00
12438;DHT22;6283;51.330;12.374;2023-04-08T09:09:12;9.70;1.00
12438;DHT22;6283;51.330;12.374;2023-04-08T09:11:42;10.10;1.00
12438;DHT22;6283;51.330;12.374;2023-04-08T09:14:22;10.20;99.90
12438;DHT22;6283;51.330;12.374;2023-04-08T09:16:48;10.30;99.90
12438;DHT22;6283;51.330;12.374;2023-04-08T09:19:15;10.20;99.90
12438;DHT22;6283;51.330;12.374;2023-04-08T09:21:40;10.30;99.90
12438;DHT22;6283;51.330;12.374;2023-04-08T09:24:07;10.40;99.90
12438;DHT22;6283;51.330;12.374;2023-04-08T09:26:34;10.40;99.90
12438;DHT22;6283;51.330;12.374;2023-04-08T09:29:02;10.50;99.90
12438;DHT22;6283;51.330;12.374;2023-04-08T09:31:29;10.60;99.90
12438;DHT22;6283;51.330;12.374;2023-04-08T09:33:57;10.80;99.90
12438;DHT22;6283;51.330;12.374;2023-04-08T09:36:23;10.60;99.90
12438;DHT22;6283;51.330;12.374;2023-04-08T09:38:49;10.60;99.90
12438;DHT22;6283;51.330;12.374;2023-04-08T09:41:16;10.30;99.90
12438;DHT22;6283;51.330;12.374;2023-04-08T09:43:53;10.40;99.90
12438;DHT22;6283;51.330;12.374;2023-04-08T09:46:55;10.50;99.90
12438;DHT22;6283;51.330;12.374;2023-04-08T09:49:42;10.60;99.90
12438;DHT22;6283;51.330;12.374;2023-04-08T09:52:14;10.40;99.90
12438;DHT22;6283;51.330;12.374;2023-04-08T09:54:45;10.50;99.90
12438;DHT22;6283;51.330;12.374;2023-04-08T09:57:16;10.40;99.90
12438;DHT22;6283;51.330;12.374;2023-04-08T09:59:48;10.40;99.90
12438;DHT22;6283;51.330;12.374;2023-04-08T10:02:24;10.60;99.90
12438;DHT22;6283;51.330;12.374;2023-04-08T10:04:56;10.40;99.90
12438;DHT22;6283;51.330;12.374;2023-04-08T10:07:23;10.60;99.90
12438;DHT22;6283;51.330;12.374;2023-04-08T10:09:49;10.50;99.90
12438;DHT22;6283;51.330;12.374;2023-04-08T10:12:15;10.60;99.90
12438;DHT22;6283;51.330;12.374;2023-04-08T10:14:41;10.40;99.90
12438;DHT22;6283;51.330;12.374;2023-04-08T10:17:26;10.40;99.90
12438;DHT22;6283;51.330;12.374;2023-04-08T10:19:52;10.40;99.90
12438;DHT22;6283;51.330;12.374;2023-04-08T10:27:44;10.30;99.90
12438;DHT22;6283;51.330;12.374;2023-04-08T10:32:51;10.30;99.90
12438;DHT22;6283;51.330;12.374;2023-04-08T10:35:16;10.30;99.90
12438;DHT22;6283;51.330;12.374;2023-04-08T10:37:43;10.40;99.90
12438;DHT22;6283;51.330;12.374;2023-04-08T10:40:18;10.60;99.90
12438;DHT22;6283;51.330;12.374;2023-04-08T10:42:46;10.20;99.90
12438;DHT22;6283;51.330;12.374;2023-04-08T10:45:18;10.50;99.90
12438;DHT22;6283;51.330;12.374;2023-04-08T10:47:44;10.40;99.90
12438;DHT22;6283;51.330;12.374;2023-04-08T10:50:17;10.30;99.90
12438;DHT22;6283;51.330;12.374;2023-04-08T10:52:53;10.00;99.90
12438;DHT22;6283;51.330;12.374;2023-04-08T10:55:23;10.20;99.90
12438;DHT22;6283;51.330;12.374;2023-04-08T10:57:49;10.50;99.90
12438;DHT22;6283;51.330;12.374;2023-04-08T11:00:35;10.50;99.90
12438;DHT22;6283;51.330;12.374;2023-04-08T11:03:06;10.70;99.90
12438;DHT22;6283;51.330;12.374;2023-04-08T11:05:33;10.70;99.90
12438;DHT22;6283;51.330;12.374;2023-04-08T11:07:59;11.10;99.90
12438;DHT22;6283;51.330;12.374;2023-04-08T11:10:25;10.90;99.90
12438;DHT22;6283;51.330;12.374;2023-04-08T11:12:53;11.20;99.90
12438;DHT22;6283;51.330;12.374;2023-04-08T11:15:19;10.80;99.90
12438;DHT22;6283;51.330;12.374;2023-04-08T11:17:46;10.70;99.90
12438;DHT22;6283;51.330;12.374;2023-04-08T11:20:12;10.70;99.90
12438;DHT22;6283;51.330;12.374;2023-04-08T11:22:39;10.90;99.90
12438;DHT22;6283;51.330;12.374;2023-04-08T11:25:06;10.80;99.90
12438;DHT22;6283;51.330;12.374;2023-04-08T11:27:33;11.00;99.90
12438;DHT22;6283;51.330;12.374;2023-04-08T11:30:01;11.20;99.90
12438;DHT22;6283;51.330;12.374;2023-04-08T11:32:27;11.20;99.90
12438;DHT22;6283;51.330;12.374;2023-04-08T11:34:53;11.40;99.90
12438;DHT22;6283;51.330;12.374;2023-04-08T11:37:19;11.30;99.90
12438;DHT22;6283;51.330;12.374;2023-04-08T11:39:45;11.60;99.90
12438;DHT22;6283;51.330;12.374;2023-04-08T11:42:31;12.00;99.90
12438;DHT22;6283;51.330;12.374;2023-04-08T11:44:57;12.10;99.90
12438;DHT22;6283;51.330;12.374;2023-04-08T11:47:49;12.30;99.90
12438;DHT22;6283;51.330;12.374;2023-04-08T11:50:25;12.30;99.90
12438;DHT22;6283;51.330;12.374;2023-04-08T11:52:52;12.40;99.90
12438;DHT22;6283;51.330;12.374;2023-04-08T11:55:28;12.50;99.90
12438;DHT22;6283;51.330;12.374;2023-04-08T11:57:55;12.50;99.90
12438;DHT22;6283;51.330;12.374;2023-04-08T12:00:22;12.30;99.90
12438;DHT22;6283;51.330;12.374;2023-04-08T12:02:49;12.30;99.90
12438;DHT22;6283;51.330;12.374;2023-04-08T12:05:15;12.30;99.90
12438;DHT22;6283;51.330;12.374;2023-04-08T12:07:42;12.50;99.90
12438;DHT22;6283;51.330;12.374;2023-04-08T12:10:08;12.50;99.90
12438;DHT22;6283;51.330;12.374;2023-04-08T12:12:35;12.30;99.90
12438;DHT22;6283;51.330;12.374;2023-04-08T12:15:00;12.50;99.90
12438;DHT22;6283;51.330;12.374;2023-04-08T12:17:26;12.80;99.90
12438;DHT22;6283;51.330;12.374;2023-04-08T12:19:52;12.90;99.90
12438;DHT22;6283;51.330;12.374;2023-04-08T12:22:17;12.90;99.90
12438;DHT22;6283;51.330;12.374;2023-04-08T12:24:43;12.90;99.90
12438;DHT22;6283;51.330;12.374;2023-04-08T12:27:09;12.90;99.60
12438;DHT22;6283;51.330;12.374;2023-04-08T12:29:34;13.00;99.90
12438;DHT22;6283;51.330;12.374;2023-04-08T12:32:00;13.00;99.90
12438;DHT22;6283;51.330;12.374;2023-04-08T12:34:26;12.90;95.70
12438;DHT22;6283;51.330;12.374;2023-04-08T12:36:52;12.70;88.90
12438;DHT22;6283;51.330;12.374;2023-04-08T12:39:19;12.80;85.20
12438;DHT22;6283;51.330;12.374;2023-04-08T12:41:45;12.90;85.10
12438;DHT22;6283;51.330;12.374;2023-04-08T12:44:11;12.70;82.40
12438;DHT22;6283;51.330;12.374;2023-04-08T12:46:37;12.70;82.50
12438;DHT22;6283;51.330;12.374;2023-04-08T12:49:02;12.60;84.00
12438;DHT22;6283;51.330;12.374;2023-04-08T12:51:28;12.90;84.60
12438;DHT22;6283;51.330;12.374;2023-04-08T12:53:54;12.70;75.20
12438;DHT22;6283;51.330;12.374;2023-04-08T12:56:19;12.70;65.30
12438;DHT22;6283;51.330;12.374;2023-04-08T12:58:45;12.90;63.60
12438;DHT22;6283;51.330;12.374;2023-04-08T13:01:11;13.30;56.90
12438;DHT22;6283;51.330;12.374;2023-04-08T13:03:37;13.00;49.20
12438;DHT22;6283;51.330;12.374;2023-04-08T13:06:02;13.10;67.10
12438;DHT22;6283;51.330;12.374;2023-04-08T13:08:28;13.00;43.60
12438;DHT22;6283;51.330;12.374;2023-04-08T13:10:54;12.70;33.90
12438;DHT22;6283;51.330;12.374;2023-04-08T13:13:19;12.80;32.50
12438;DHT22;6283;51.330;12.374;2023-04-08T13:15:45;12.70;34.00
12438;DHT22;6283;51.330;12.374;2023-04-08T13:18:11;13.00;29.10
12438;DHT22;6283;51.330;12.374;2023-04-08T13:20:37;12.90;28.60
12438;DHT22;6283;51.330;12.374;2023-04-08T13:23:03;12.80;25.30
12438;DHT22;6283;51.330;12.374;2023-04-08T13:25:28;12.90;23.20
12438;DHT22;6283;51.330;12.374;2023-04-08T13:27:54;12.80;21.00
12438;DHT22;6283;51.330;12.374;2023-04-08T13:30:20;13.00;22.50
12438;DHT22;6283;51.330;12.374;2023-04-08T13:32:45;12.70;22.90
12438;DHT22;6283;51.330;12.374;2023-04-08T13:35:11;12.90;25.90
12438;DHT22;6283;51.330;12.374;2023-04-08T13:37:37;12.90;27.60
12438;DHT22;6283;51.330;12.374;2023-04-08T13:40:03;13.00;28.90
12438;DHT22;6283;51.330;12.374;2023-04-08T13:42:29;13.30;29.20
12438;DHT22;6283;51.330;12.374;2023-04-08T13:44:57;13.30;28.70
12438;DHT22;6283;51.330;12.374;2023-04-08T13:47:23;13.40;21.70
12438;DHT22;6283;51.330;12.374;2023-04-08T13:49:49;13.60;29.70
12438;DHT22;6283;51.330;12.374;2023-04-08T13:52:15;13.60;3.80
12438;DHT22;6283;51.330;12.374;2023-04-08T13:54:41;13.50;1.70
12438;DHT22;6283;51.330;12.374;2023-04-08T13:57:07;13.30;1.00
12438;DHT22;6283;51.330;12.374;2023-04-08T13:59:32;13.50;1.00
12438;DHT22;6283;51.330;12.374;2023-04-08T14:01:58;13.30;5.60
12438;DHT22;6283;51.330;12.374;2023-04-08T14:04:24;13.30;13.70
12438;DHT22;6283;51.330;12.374;2023-04-08T14:06:49;13.20;18.60
12438;DHT22;6283;51.330;12.374;2023-04-08T14:09:18;13.20;23.20
12438;DHT22;6283;51.330;12.374;2023-04-08T14:11:43;13.10;23.60
12438;DHT22;6283;51.330;12.374;2023-04-08T14:14:10;12.90;22.70
12438;DHT22;6283;51.330;12.374;2023-04-08T14:16:35;13.10;23.50
12438;DHT22;6283;51.330;12.374;2023-04-08T14:19:02;13.10;25.70
12438;DHT22;6283;51.330;12.374;2023-04-08T14:21:28;13.00;24.60
12438;DHT22;6283;51.330;12.374;2023-04-08T14:23:54;12.90;21.30
12438;DHT22;6283;51.330;12.374;2023-04-08T14:26:19;13.00;24.00
12438;DHT22;6283;51.330;12.374;2023-04-08T14:28:45;12.70;25.70
12438;DHT22;6283;51.330;12.374;2023-04-08T14:31:12;12.90;28.80
12438;DHT22;6283;51.330;12.374;2023-04-08T14:33:38;12.90;28.00
12438;DHT22;6283;51.330;12.374;2023-04-08T14:36:04;12.80;27.90
12438;DHT22;6283;51.330;12.374;2023-04-08T14:38:30;12.60;44.00
12438;DHT22;6283;51.330;12.374;2023-04-08T14:40:56;12.60;28.60
12438;DHT22;6283;51.330;12.374;2023-04-08T14:43:22;12.30;31.30
12438;DHT22;6283;51.330;12.374;2023-04-08T14:45:49;12.10;31.00
12438;DHT22;6283;51.330;12.374;2023-04-08T14:48:15;12.30;31.40
12438;DHT22;6283;51.330;12.374;2023-04-08T14:50:41;12.30;32.80
12438;DHT22;6283;51.330;12.374;2023-04-08T14:53:06;12.20;30.60
12438;DHT22;6283;51.330;12.374;2023-04-08T14:55:32;12.10;30.30
12438;DHT22;6283;51.330;12.374;2023-04-08T14:57:58;12.30;48.50
12438;DHT22;6283;51.330;12.374;2023-04-08T15:00:24;12.00;31.50
12438;DHT22;6283;51.330;12.374;2023-04-08T15:02:49;12.10;25.20
12438;DHT22;6283;51.330;12.374;2023-04-08T15:05:15;12.40;24.80
12438;DHT22;6283;51.330;12.374;2023-04-08T15:07:41;12.50;21.40
12438;DHT22;6283;51.330;12.374;2023-04-08T15:10:08;12.60;21.40
12438;DHT22;6283;51.330;12.374;2023-04-08T15:12:33;12.90;19.30
12438;DHT22;6283;51.330;12.374;2023-04-08T15:14:59;13.00;13.00
12438;DHT22;6283;51.330;12.374;2023-04-08T15:17:24;13.20;8.80
12438;DHT22;6283;51.330;12.374;2023-04-08T15:19:53;13.20;4.50
12438;DHT22;6283;51.330;12.374;2023-04-08T15:22:19;13.20;3.90
12438;DHT22;6283;51.330;12.374;2023-04-08T15:24:45;13.20;1.10
12438;DHT22;6283;51.330;12.374;2023-04-08T15:27:11;13.00;1.10
12438;DHT22;6283;51.330;12.374;2023-04-08T15:29:37;12.90;4.10
12438;DHT22;6283;51.330;12.374;2023-04-08T15:32:03;13.20;5.40
12438;DHT22;6283;51.330;12.374;2023-04-08T15:34:28;13.80;3.50
12438;DHT22;6283;51.330;12.374;2023-04-08T15:36:54;14.40;1.00
12438;DHT22;6283;51.330;12.374;2023-04-08T15:39:23;15.10;1.00
12438;DHT22;6283;51.330;12.374;2023-04-08T15:41:48;15.50;1.00
12438;DHT22;6283;51.330;12.374;2023-04-08T15:44:14;15.60;1.00
12438;DHT22;6283;51.330;12.374;2023-04-08T15:46:40;15.50;1.00
12438;DHT22;6283;51.330;12.374;2023-04-08T15:49:06;15.50;1.00
12438;DHT22;6283;51.330;12.374;2023-04-08T15:51:32;15.30;1.00
12438;DHT22;6283;51.330;12.374;2023-04-08T15:53:58;15.20;1.00
12438;DHT22;6283;51.330;12.374;2023-04-08T15:56:25;15.10;1.00
12438;DHT22;6283;51.330;12.374;2023-04-08T15:58:52;15.00;1.00